createdAt,value
2023-07-15T00:04:20.713Z,23.54
2023-07-15T00:09:28.984Z,23.43
2023-07-15T00:14:31.822Z,23.67
2023-07-15T00:19:35.396Z,23.49
2023-07-15T00:24:39.588Z,23.40
2023-07-15T00:29:42.417Z,23.27
2023-07-15T00:34:45.279Z,23.18
2023-07-15T00:39:49.494Z,23.19
2023-07-15T00:44:52.121Z,22.97
2023-07-15T00:49:56.686Z,22.91
2023-07-15T00:54:59.621Z,23.24
2023-07-15T01:00:05.787Z,22.95
2023-07-15T01:05:11.628Z,22.88
2023-07-15T01:10:14.406Z,23.03
2023-07-15T01:15:17.256Z,22.94
2023-07-15T01:20:25.903Z,23.03
2023-07-15T01:25:31.508Z,22.88
2023-07-15T01:30:34.270Z,22.91
2023-07-15T01:35:37.313Z,22.65
2023-07-15T01:40:41.692Z,22.65
2023-07-15T01:45:45.225Z,22.58
2023-07-15T01:50:49.271Z,22.37
2023-07-15T01:55:55.104Z,22.28
2023-07-15T02:00:57.945Z,22.25
2023-07-15T02:06:00.795Z,22.03
2023-07-15T02:11:06.195Z,21.91
2023-07-15T02:16:09.057Z,21.95
2023-07-15T02:21:11.828Z,21.82
2023-07-15T02:26:16.280Z,21.92
2023-07-15T02:31:19.229Z,21.82
2023-07-15T02:36:22.081Z,21.81
2023-07-15T02:41:26.866Z,21.71
2023-07-15T02:46:29.729Z,21.51
2023-07-15T02:51:32.530Z,21.50
2023-07-15T02:56:36.685Z,21.50
2023-07-15T03:01:39.696Z,21.48
2023-07-15T03:06:43.299Z,21.57
2023-07-15T03:11:47.612Z,21.32
2023-07-15T03:16:50.455Z,21.32
2023-07-15T03:21:53.445Z,21.54
2023-07-15T03:26:57.651Z,21.39
2023-07-15T03:32:00.495Z,21.38
2023-07-15T03:37:03.671Z,21.62
2023-07-15T03:42:08.657Z,21.45
2023-07-15T03:47:11.558Z,21.47
2023-07-15T03:52:14.649Z,21.41
2023-07-15T03:57:18.737Z,21.69
2023-07-15T04:02:21.554Z,21.47
2023-07-15T04:07:24.380Z,21.37
2023-07-15T04:12:28.517Z,21.20
2023-07-15T04:17:31.291Z,21.24
2023-07-15T04:22:38.225Z,21.34
2023-07-15T04:27:42.927Z,21.45
2023-07-15T04:32:45.814Z,21.62
2023-07-15T04:37:48.542Z,22.04
2023-07-15T04:42:52.654Z,21.81
2023-07-15T04:47:55.508Z,21.92
2023-07-15T04:52:58.296Z,22.18
2023-07-15T04:58:02.485Z,21.99
2023-07-15T05:03:07.245Z,22.01
2023-07-15T05:08:14.950Z,22.24
2023-07-15T05:13:19.488Z,22.64
2023-07-15T05:18:22.281Z,22.57
2023-07-15T05:23:25.748Z,22.98
2023-07-15T05:28:31.830Z,23.29
2023-07-15T05:33:34.769Z,23.31
2023-07-15T05:38:43.784Z,23.45
2023-07-15T05:43:47.973Z,23.29
2023-07-15T05:48:50.769Z,23.33
2023-07-15T05:53:53.564Z,23.59
2023-07-15T05:58:57.725Z,24.00
2023-07-15T06:04:00.732Z,23.78
2023-07-15T06:09:03.633Z,24.01
2023-07-15T06:14:10.473Z,24.53
2023-07-15T06:19:13.343Z,25.52
2023-07-15T06:24:16.229Z,26.53
2023-07-15T06:29:20.497Z,26.86
2023-07-15T06:34:23.358Z,26.72
2023-07-15T06:39:26.221Z,26.74
2023-07-15T06:44:30.490Z,26.54
2023-07-15T06:49:33.383Z,27.32
2023-07-15T06:54:36.256Z,27.57
2023-07-15T06:59:40.629Z,27.89
2023-07-15T07:04:43.477Z,29.19
2023-07-15T07:09:46.284Z,29.72
2023-07-15T07:14:51.500Z,29.37
2023-07-15T07:19:54.390Z,31.18
2023-07-15T07:24:57.813Z,33.63
2023-07-15T07:30:02.049Z,34.06
2023-07-15T07:35:05.304Z,33.98
2023-07-15T07:40:10.780Z,36.85
2023-07-15T07:45:16.305Z,38.97
2023-07-15T07:50:19.065Z,41.32
2023-07-15T07:55:21.827Z,41.57
2023-07-15T08:00:25.952Z,41.91
2023-07-15T08:05:28.727Z,42.35
2023-07-15T08:10:31.721Z,40.37
2023-07-15T08:15:36.346Z,41.17
2023-07-15T08:20:42.413Z,41.29
2023-07-15T08:25:45.330Z,41.44
2023-07-15T08:30:49.426Z,39.71
2023-07-15T08:35:52.368Z,38.43
2023-07-15T08:41:01.236Z,35.68
2023-07-15T08:46:12.736Z,34.14
2023-07-15T08:51:15.902Z,33.17
2023-07-15T08:56:19.777Z,32.81
2023-07-15T09:01:24.144Z,32.80
2023-07-15T09:06:27.451Z,32.49
2023-07-15T09:11:39.853Z,32.38
2023-07-15T09:16:45.430Z,32.36
2023-07-15T09:22:07.178Z,32.67
2023-07-15T09:27:10.250Z,32.58
2023-07-15T09:32:23.261Z,32.70
2023-07-15T09:37:29.770Z,32.40
2023-07-15T09:42:34.514Z,32.64
2023-07-15T09:47:39.171Z,32.91
2023-07-15T09:52:42.106Z,32.70
2023-07-15T09:57:45.101Z,32.71
2023-07-15T10:02:53.452Z,33.09
2023-07-15T10:07:57.574Z,33.10
2023-07-15T10:13:00.455Z,33.70
2023-07-15T10:18:15.773Z,33.79
2023-07-15T10:23:26.797Z,33.63
2023-07-15T10:28:32.703Z,34.13
2023-07-15T10:33:37.900Z,33.87
2023-07-15T10:38:40.784Z,33.28
2023-07-15T10:43:43.542Z,33.46
2023-07-15T10:48:47.684Z,34.06
2023-07-15T10:53:50.721Z,34.49
2023-07-15T10:58:53.897Z,33.96
2023-07-15T11:04:05.602Z,34.09
2023-07-15T11:09:19.534Z,33.84
2023-07-15T11:14:24.091Z,33.89
2023-07-15T11:19:30.586Z,34.36
2023-07-15T11:24:33.627Z,34.39
2023-07-15T11:29:36.407Z,34.64
2023-07-15T11:34:40.641Z,34.83
2023-07-15T11:39:45.468Z,34.72
2023-07-15T11:44:48.955Z,34.73
2023-07-15T11:49:53.375Z,34.85
2023-07-15T11:54:57.220Z,34.89
2023-07-15T12:00:00.002Z,34.66
2023-07-15T12:05:04.237Z,34.62
2023-07-15T12:10:08.081Z,34.73
2023-07-15T12:15:11.631Z,34.59
2023-07-15T12:20:15.776Z,34.78
2023-07-15T12:25:19.117Z,34.64
2023-07-15T12:30:22.029Z,34.31
2023-07-15T12:35:26.167Z,33.22
2023-07-15T12:40:28.987Z,33.28
2023-07-15T12:45:31.788Z,33.52
2023-07-15T12:50:37.006Z,33.33
2023-07-15T12:55:39.817Z,33.84
2023-07-15T13:00:42.640Z,33.93
2023-07-15T13:05:46.920Z,33.82
2023-07-15T13:10:49.786Z,33.65
2023-07-15T13:15:52.619Z,33.26
2023-07-15T13:20:56.810Z,33.11
2023-07-15T13:25:59.621Z,32.02
2023-07-15T13:31:02.384Z,32.22
2023-07-15T13:36:07.331Z,32.69
2023-07-15T13:41:10.147Z,31.94
2023-07-15T13:46:13.636Z,32.18
2023-07-15T13:51:17.963Z,31.80
2023-07-15T13:56:20.930Z,31.98
2023-07-15T14:01:23.791Z,31.71
2023-07-15T14:06:27.927Z,31.77
2023-07-15T14:11:30.732Z,31.14
2023-07-15T14:16:33.548Z,30.90
2023-07-15T14:21:37.915Z,31.50
2023-07-15T14:26:40.713Z,31.92
2023-07-15T14:31:44.165Z,32.61
2023-07-15T14:36:48.406Z,31.59
2023-07-15T14:41:51.226Z,31.57
2023-07-15T14:46:56.103Z,31.45
2023-07-15T14:52:00.489Z,31.27
2023-07-15T14:57:03.244Z,31.99
2023-07-15T15:02:06.353Z,32.08
2023-07-15T15:07:10.470Z,32.01
2023-07-15T15:12:13.286Z,31.81
2023-07-15T15:17:18.165Z,31.29
2023-07-15T15:22:22.602Z,31.06
2023-07-15T15:27:25.495Z,31.37
2023-07-15T15:32:28.426Z,32.40
2023-07-15T15:37:32.633Z,32.42
2023-07-15T15:42:35.493Z,31.84
2023-07-15T15:47:40.255Z,31.47
2023-07-15T15:52:46.718Z,31.04
2023-07-15T15:57:49.657Z,31.01
2023-07-15T16:02:52.525Z,30.89
2023-07-15T16:07:56.739Z,30.82
2023-07-15T16:12:59.556Z,30.00
2023-07-15T16:18:02.459Z,30.04
2023-07-15T16:23:06.853Z,29.98
2023-07-15T16:28:10.005Z,29.60
2023-07-15T16:33:12.885Z,29.44
2023-07-15T16:38:17.366Z,29.32
2023-07-15T16:43:22.701Z,29.33
2023-07-15T16:48:26.872Z,29.37
2023-07-15T16:53:31.292Z,29.81
2023-07-15T16:58:34.098Z,29.73
2023-07-15T17:03:37.003Z,30.46
2023-07-15T17:08:42.119Z,29.82
2023-07-15T17:13:45.003Z,30.05
2023-07-15T17:18:47.844Z,30.01
2023-07-15T17:23:52.036Z,29.86
2023-07-15T17:28:54.833Z,29.57
2023-07-15T17:33:57.728Z,29.36
2023-07-15T17:39:02.286Z,29.60
2023-07-15T17:44:06.773Z,29.96
2023-07-15T17:49:09.685Z,29.46
2023-07-15T17:54:13.959Z,29.46
2023-07-15T17:59:18.655Z,29.36
2023-07-15T18:04:21.675Z,29.54
2023-07-15T18:09:25.859Z,29.42
2023-07-15T18:14:28.693Z,29.27
2023-07-15T18:19:31.595Z,29.60
2023-07-15T18:24:35.853Z,29.15
2023-07-15T18:29:38.689Z,29.40
2023-07-15T18:34:41.466Z,29.31
2023-07-15T18:39:45.671Z,29.62
2023-07-15T18:44:48.987Z,29.03
2023-07-15T18:49:51.930Z,29.07
2023-07-15T18:54:56.159Z,29.22
2023-07-15T18:59:58.956Z,28.98
2023-07-15T19:05:02.178Z,29.04
2023-07-15T19:10:08.532Z,28.87
2023-07-15T19:15:12.233Z,28.93
2023-07-15T19:20:15.053Z,28.70
2023-07-15T19:25:19.635Z,28.51
2023-07-15T19:30:22.658Z,28.35
2023-07-15T19:35:26.072Z,28.12
2023-07-15T19:40:30.321Z,28.08
2023-07-15T19:45:33.494Z,28.06
2023-07-15T19:50:36.469Z,27.98
2023-07-15T19:55:40.728Z,27.80
2023-07-15T20:00:43.715Z,27.92
2023-07-15T20:05:46.601Z,28.04
2023-07-15T20:10:50.765Z,27.84
2023-07-15T20:15:53.554Z,27.71
2023-07-15T20:20:56.428Z,27.67
2023-07-15T20:26:00.679Z,27.51
2023-07-15T20:31:04.198Z,27.44
2023-07-15T20:36:07.030Z,27.41
2023-07-15T20:41:11.269Z,27.30
2023-07-15T20:46:14.653Z,27.37
2023-07-15T20:51:17.722Z,27.23
2023-07-15T21:02:40.376Z,27.34
2023-07-15T21:07:43.330Z,27.28
2023-07-15T21:12:48.853Z,27.30
2023-07-15T21:17:53.062Z,27.27
2023-07-15T21:22:56.200Z,27.25
2023-07-15T21:27:59.044Z,27.01
2023-07-15T21:33:03.554Z,27.07
2023-07-15T21:38:06.396Z,26.08
2023-07-15T21:43:09.209Z,26.01
2023-07-15T21:48:15.385Z,25.47
2023-07-15T21:53:19.668Z,25.46
2023-07-15T21:58:22.469Z,24.80
2023-07-15T22:03:27.262Z,25.04
2023-07-15T22:08:30.226Z,24.67
2023-07-15T22:13:33.005Z,24.21
2023-07-15T22:18:41.216Z,23.98
2023-07-15T22:23:44.443Z,23.79
2023-07-15T22:28:48.022Z,23.68
2023-07-15T22:33:52.209Z,23.17
2023-07-15T22:38:55.263Z,22.91
2023-07-15T22:43:58.081Z,22.65
2023-07-15T22:49:02.596Z,22.95
2023-07-15T22:54:05.457Z,22.91
2023-07-15T22:59:08.285Z,22.89
2023-07-15T23:04:12.420Z,22.69
2023-07-15T23:09:15.392Z,22.95
2023-07-15T23:14:18.639Z,23.06
2023-07-15T23:19:22.814Z,22.28
2023-07-15T23:24:25.640Z,22.61
2023-07-15T23:29:28.567Z,22.42
2023-07-15T23:34:32.734Z,22.15
2023-07-15T23:39:35.518Z,22.37
2023-07-15T23:44:38.333Z,22.72
2023-07-15T23:49:42.480Z,22.54
2023-07-15T23:54:45.272Z,22.26
2023-07-15T23:59:48.046Z,22.13
